Time;durP1;ratioP1;P1;durP2;ratioP2;P2;SDS_P1;SDS_P2;PMS_P1;PMS_P2;Temp;Humidity;BMP_temperature;BMP_pressure;BME280_temperature;BME280_humidity;BME280_pressure;Samples;Min_cycle;Max_cycle;Signal;HPM_P1;HPM_P2
2023/09/01 00:00:15;;;;;;;6.00;3.40;;;;;;;11.87;100.00;100382.94;701474;28;1346;-63
2023/09/01 00:00:47;;;;;;;6.45;3.13;;;;;;;11.85;100.00;100374.25;698934;28;4637;-63
2023/09/01 00:01:33;;;;;;;6.80;3.40;;;;;;;11.85;100.00;100379.50;692791;28;1207;-62
2023/09/01 00:02:17;;;;;;;6.28;3.30;;;;;;;11.85;100.00;100379.50;701323;28;899;-62
2023/09/01 00:03:01;;;;;;;9.20;3.95;;;;;;;11.85;100.00;100375.97;700289;28;1841;-63
2023/09/01 00:03:21;;;;;;;8.35;3.75;;;;;;;11.87;100.00;100368.97;700902;28;1192;-63
2023/09/01 00:03:42;;;;;;;7.53;3.80;;;;;;;11.87;100.00;100375.06;699231;28;4385;-63
2023/09/01 00:04:02;;;;;;;5.67;3.10;;;;;;;11.86;100.00;100375.97;701343;28;883;-63
2023/09/01 00:04:23;;;;;;;6.23;3.20;;;;;;;11.85;100.00;100381.22;701578;28;907;-63
2023/09/01 00:04:43;;;;;;;6.83;3.47;;;;;;;11.85;100.00;100376.88;697070;28;1792;-63
2023/09/01 00:05:04;;;;;;;7.50;3.50;;;;;;;11.87;100.00;100374.22;698275;28;856;-63
2023/09/01 00:05:24;;;;;;;7.57;3.67;;;;;;;11.87;100.00;100372.47;698714;28;1017;-63
2023/09/01 00:05:44;;;;;;;7.40;3.43;;;;;;;11.85;100.00;100366.38;697217;28;1865;-62
2023/09/01 00:06:11;;;;;;;7.53;3.30;;;;;;;11.83;100.00;100370.78;698291;28;1151;-63
2023/09/01 00:06:32;;;;;;;8.88;3.50;;;;;;;11.86;100.00;100372.47;698878;28;2906;-63
2023/09/01 00:06:52;;;;;;;6.03;3.20;;;;;;;11.87;100.00;100372.47;699344;28;4592;-63
2023/09/01 00:07:12;;;;;;;6.73;3.20;;;;;;;11.86;100.00;100373.34;701281;28;1291;-63
2023/09/01 00:07:33;;;;;;;7.53;3.45;;;;;;;11.85;100.00;100371.63;701697;28;852;-63
2023/09/01 00:07:53;;;;;;;7.03;3.40;;;;;;;11.85;100.00;100366.38;700123;28;2463;-63
2023/09/01 00:08:14;;;;;;;6.95;3.30;;;;;;;11.86;100.00;100368.09;701182;28;928;-63
2023/09/01 00:08:34;;;;;;;6.87;3.27;;;;;;;11.86;100.00;100369.88;698664;28;868;-62
2023/09/01 00:08:55;;;;;;;6.35;3.17;;;;;;;11.88;100.00;100366.34;697065;28;1501;-63
2023/09/01 00:09:15;;;;;;;5.97;3.20;;;;;;;11.90;100.00;100375.03;698161;28;1285;-63
2023/09/01 00:09:36;;;;;;;5.70;3.20;;;;;;;11.90;100.00;100369.78;697377;28;1494;-64
2023/09/01 00:09:56;;;;;;;6.03;3.27;;;;;;;11.90;100.00;100371.56;698035;28;4522;-63
2023/09/01 00:10:17;;;;;;;6.03;3.33;;;;;;;11.90;100.00;100369.78;701219;28;1913;-63
2023/09/01 00:10:39;;;;;;;6.77;3.10;;;;;;;11.90;100.00;100363.69;700207;28;1565;-63
2023/09/01 00:10:59;;;;;;;6.95;3.40;;;;;;;11.91;100.00;100375.91;701267;28;1228;-62
2023/09/01 00:11:20;;;;;;;6.30;3.53;;;;;;;11.91;100.00;100368.06;701368;28;867;-63
2023/09/01 00:11:40;;;;;;;6.57;3.20;;;;;;;11.89;100.00;100368.06;700297;28;1679;-63
2023/09/01 00:12:00;;;;;;;6.68;3.20;;;;;;;11.91;100.00;100376.75;701632;28;1094;-63
2023/09/01 00:12:21;;;;;;;6.87;3.70;;;;;;;11.92;100.00;100378.50;701257;28;1017;-63
2023/09/01 00:12:41;;;;;;;7.57;3.80;;;;;;;11.94;100.00;100375.88;699433;28;4535;-63
2023/09/01 00:13:02;;;;;;;7.13;3.30;;;;;;;11.94;100.00;100373.28;701149;28;928;-63
2023/09/01 00:13:23;;;;;;;6.15;3.20;;;;;;;11.96;100.00;100370.63;700636;28;955;-63
2023/09/01 00:13:43;;;;;;;6.47;3.20;;;;;;;11.96;100.00;100373.25;700133;28;1622;-63
2023/09/01 00:14:05;;;;;;;7.27;3.40;;;;;;;11.96;100.00;100375.84;701408;28;1142;-62
2023/09/01 00:14:25;;;;;;;7.50;3.53;;;;;;;11.94;100.00;100375.88;701314;28;891;-62
2023/09/01 00:14:45;;;;;;;7.50;3.20;;;;;;;11.93;100.00;100369.75;696372;28;1496;-63
2023/09/01 00:15:06;;;;;;;7.23;3.10;;;;;;;11.94;100.00;100375.88;698504;28;899;-63
2023/09/01 00:15:26;;;;;;;6.22;3.15;;;;;;;11.95;100.00;100377.63;698226;28;888;-63
2023/09/01 00:15:48;;;;;;;6.82;3.17;;;;;;;11.95;100.00;100379.34;693760;28;4925;-63
2023/09/01 00:16:08;;;;;;;6.85;3.30;;;;;;;11.95;100.00;100372.38;695118;28;892;-63
2023/09/01 00:16:28;;;;;;;5.93;3.30;;;;;;;11.97;100.00;100381.06;697755;28;3511;-63
2023/09/01 00:16:49;;;;;;;6.03;3.20;;;;;;;11.99;100.00;100381.03;697179;28;1535;-63
2023/09/01 00:17:09;;;;;;;5.87;3.20;;;;;;;11.98;100.00;100377.56;698791;28;879;-63
2023/09/01 00:17:30;;;;;;;6.27;3.43;;;;;;;11.99;100.00;100378.44;701165;28;1156;-63
2023/09/01 00:17:50;;;;;;;7.20;3.77;;;;;;;12.00;100.00;100374.94;699636;28;2220;-62
2023/09/01 00:18:11;;;;;;;7.47;3.40;;;;;;;12.02;100.00;100378.41;701681;28;927;-62
2023/09/01 00:18:32;;;;;;;6.10;3.20;;;;;;;12.03;100.00;100380.13;701580;28;1067;-63
2023/09/01 00:18:53;;;;;;;5.03;3.17;;;;;;;12.02;100.00;100379.25;699318;28;4428;-63
2023/09/01 00:19:13;;;;;;;7.30;3.33;;;;;;;12.01;100.00;100379.28;701443;28;1777;-62
2023/09/01 00:19:34;;;;;;;6.85;3.40;;;;;;;12.02;100.00;100383.66;701262;28;1008;-63
2023/09/01 00:19:54;;;;;;;6.77;3.10;;;;;;;12.02;100.00;100375.78;699853;28;1825;-63
2023/09/01 00:20:14;;;;;;;6.28;3.00;;;;;;;12.00;100.00;100380.16;701368;28;1364;-63
2023/09/01 00:20:35;;;;;;;6.70;3.40;;;;;;;12.01;100.00;100377.53;701590;28;903;-62
2023/09/01 00:21:05;;;;;;;7.53;3.50;;;;;;;12.01;100.00;100377.53;699985;28;1063;-62
2023/09/01 00:21:26;;;;;;;7.88;3.20;;;;;;;12.03;100.00;100381.00;700857;28;1183;-63
2023/09/01 00:21:46;;;;;;;7.82;3.42;;;;;;;12.04;100.00;100379.22;699210;28;4407;-62
2023/09/01 00:22:07;;;;;;;6.37;3.30;;;;;;;12.05;100.00;100381.81;701372;28;1164;-62
2023/09/01 00:22:27;;;;;;;6.43;3.30;;;;;;;12.05;100.00;100378.34;701409;28;797;-63
2023/09/01 00:22:47;;;;;;;7.30;3.47;;;;;;;12.04;100.00;100379.22;699715;28;1443;-63
2023/09/01 00:23:08;;;;;;;7.07;3.30;;;;;;;12.06;100.00;100380.94;701135;28;1338;-62
2023/09/01 00:23:28;;;;;;;8.07;3.30;;;;;;;12.05;100.00;100379.19;701170;28;910;-62
2023/09/01 00:23:49;;;;;;;7.17;3.13;;;;;;;12.08;100.00;100383.53;699977;28;1825;-63
2023/09/01 00:24:09;;;;;;;6.45;2.97;;;;;;;12.12;100.00;100374.75;701137;28;891;-63
2023/09/01 00:24:32;;;;;;;5.40;3.17;;;;;;;12.12;100.00;100374.75;701143;28;1404;-63
2023/09/01 00:24:52;;;;;;;6.00;3.25;;;;;;;12.12;100.00;100376.50;698889;28;4399;-63
2023/09/01 00:25:13;;;;;;;5.90;3.20;;;;;;;12.21;100.00;100366.75;701091;28;829;-63
2023/09/01 00:25:33;;;;;;;5.87;3.20;;;;;;;12.27;100.00;100371.88;701035;28;788;-62
2023/09/01 00:25:55;;;;;;;6.57;3.40;;;;;;;12.31;100.00;100375.31;699946;28;1728;-63
2023/09/01 00:26:16;;;;;;;8.25;3.85;;;;;;;12.27;100.00;100369.25;700657;28;1037;-62
2023/09/01 00:26:40;;;;;;;6.35;3.15;;;;;;;12.25;100.00;100370.16;699163;28;1625;-63
2023/09/01 00:27:01;;;;;;;7.38;3.10;;;;;;;12.24;100.00;100368.44;701376;28;903;-63
2023/09/01 00:27:22;;;;;;;6.47;3.20;;;;;;;12.22;100.00;100370.22;701223;28;1495;-63
2023/09/01 00:27:42;;;;;;;6.40;3.30;;;;;;;12.21;100.00;100377.22;696511;28;4305;-63
2023/09/01 00:28:03;;;;;;;6.27;3.43;;;;;;;12.19;100.00;100360.63;697688;28;1393;-63
2023/09/01 00:28:23;;;;;;;5.87;3.20;;;;;;;12.19;100.00;100365.88;698670;28;903;-63
2023/09/01 00:28:44;;;;;;;5.55;3.17;;;;;;;12.18;100.00;100366.75;696227;28;2035;-62
2023/09/01 00:29:04;;;;;;;6.00;3.20;;;;;;;12.19;100.00;100370.28;696847;28;1281;-63
2023/09/01 00:29:25;;;;;;;6.55;3.30;;;;;;;12.17;100.00;100367.69;698910;28;887;-63
2023/09/01 00:29:45;;;;;;;7.90;3.30;;;;;;;12.17;100.00;100374.66;698314;28;1727;-63
2023/09/01 00:30:07;;;;;;;7.10;3.30;;;;;;;12.17;100.00;100372.03;695381;28;1965;-63
2023/09/01 00:30:29;;;;;;;6.68;3.20;;;;;;;12.17;100.00;100364.16;695629;28;1095;-63
2023/09/01 00:30:57;;;;;;;6.65;3.30;;;;;;;12.17;100.00;100369.41;693414;28;4699;-63
2023/09/01 00:31:19;;;;;;;6.43;3.25;;;;;;;12.18;100.00;100371.16;692896;28;1290;-63
2023/09/01 00:31:39;;;;;;;6.05;3.00;;;;;;;12.17;100.00;100372.91;692375;28;1762;-63
2023/09/01 00:32:01;;;;;;;6.90;3.83;;;;;;;12.15;100.00;100374.69;699156;28;1432;-63
2023/09/01 00:32:21;;;;;;;7.40;3.67;;;;;;;12.15;100.00;100371.22;700110;28;1150;-63
2023/09/01 00:32:42;;;;;;;7.13;3.37;;;;;;;12.16;100.00;100373.81;698643;28;1478;-63
2023/09/01 00:33:03;;;;;;;6.97;3.20;;;;;;;12.16;100.00;100371.19;697011;28;1318;-63
2023/09/01 00:33:29;;;;;;;5.75;3.20;;;;;;;12.15;100.00;100372.06;697847;28;903;-63
2023/09/01 00:33:49;;;;;;;7.53;3.15;;;;;;;12.16;100.00;100376.41;691367;28;4422;-63
2023/09/01 00:34:09;;;;;;;7.43;3.20;;;;;;;12.18;100.00;100373.78;692596;28;1007;-63
2023/09/01 00:34:31;;;;;;;6.53;3.60;;;;;;;12.18;100.00;100379.00;692825;28;877;-63
2023/09/01 00:34:57;;;;;;;6.28;3.35;;;;;;;12.18;100.00;100374.63;691119;28;1470;-63
2023/09/01 00:35:18;;;;;;;5.90;3.00;;;;;;;12.19;100.00;100378.13;697313;28;1559;-62
2023/09/01 00:35:38;;;;;;;5.80;3.30;;;;;;;12.19;100.00;100378.13;693223;28;2086;-62
2023/09/01 00:35:59;;;;;;;6.53;3.43;;;;;;;12.18;100.00;100376.41;698290;28;814;-63
2023/09/01 00:36:20;;;;;;;6.50;3.20;;;;;;;12.18;100.00;100377.25;695726;28;1199;-63
2023/09/01 00:36:40;;;;;;;6.23;3.00;;;;;;;12.19;100.00;100372.91;693708;28;4422;-63
2023/09/01 00:37:01;;;;;;;6.03;3.50;;;;;;;12.19;100.00;100376.38;697841;28;860;-62
2023/09/01 00:37:21;;;;;;;6.37;3.50;;;;;;;12.20;100.00;100382.50;698741;28;1518;-62
2023/09/01 00:37:42;;;;;;;5.50;3.10;;;;;;;12.19;100.00;100376.38;693948;28;2014;-63
2023/09/01 00:38:02;;;;;;;6.03;3.17;;;;;;;12.19;100.00;100370.28;695683;28;843;-63
2023/09/01 00:38:29;;;;;;;6.18;3.40;;;;;;;12.19;100.00;100376.38;698208;28;1228;-63
2023/09/01 00:38:49;;;;;;;6.68;3.20;;;;;;;12.19;100.00;100365.88;696027;28;1892;-63
2023/09/01 00:39:10;;;;;;;7.47;3.17;;;;;;;12.20;100.00;100377.25;698556;28;919;-63
2023/09/01 00:39:30;;;;;;;7.87;3.20;;;;;;;12.21;100.00;100373.72;697761;28;852;-63
2023/09/01 00:39:51;;;;;;;5.53;3.20;;;;;;;12.19;100.00;100365.88;695990;28;4558;-63
2023/09/01 00:40:11;;;;;;;5.60;2.97;;;;;;;12.21;100.00;100368.47;698245;28;772;-63
2023/09/01 00:40:32;;;;;;;7.00;3.13;;;;;;;12.21;100.00;100371.09;695805;28;1436;-63
2023/09/01 00:40:53;;;;;;;6.23;3.10;;;;;;;12.21;100.00;100368.47;694380;28;1261;-63
2023/09/01 00:41:14;;;;;;;5.72;2.92;;;;;;;12.21;100.00;100366.75;696093;28;925;-63
2023/09/01 00:41:35;;;;;;;5.60;3.10;;;;;;;12.21;100.00;100365.84;694946;28;1030;-63
2023/09/01 00:41:56;;;;;;;5.60;3.10;;;;;;;12.22;100.00;100362.34;693930;28;1484;-63
2023/09/01 00:42:16;;;;;;;5.70;3.10;;;;;;;12.21;100.00;100363.22;695410;28;1147;-63
2023/09/01 00:42:37;;;;;;;6.03;3.10;;;;;;;12.21;100.00;100363.22;699242;28;1500;-63
2023/09/01 00:42:57;;;;;;;7.13;3.23;;;;;;;12.22;100.00;100359.72;692669;28;4415;-63
2023/09/01 00:43:20;;;;;;;6.50;3.50;;;;;;;12.21;100.00;100363.22;695033;28;1618;-63
2023/09/01 00:43:40;;;;;;;5.85;3.15;;;;;;;12.21;100.00;100361.50;696677;28;2565;-63
2023/09/01 00:44:03;;;;;;;6.10;2.95;;;;;;;12.21;100.00;100363.22;700797;28;1444;-63
2023/09/01 00:44:23;;;;;;;6.03;3.20;;;;;;;12.27;100.00;100364.00;697517;28;2114;-63
2023/09/01 00:44:44;;;;;;;6.20;3.00;;;;;;;12.27;100.00;100358.75;694544;28;1818;-63
2023/09/01 00:45:08;;;;;;;6.18;3.13;;;;;;;12.26;100.00;100359.66;692348;28;1238;-63
2023/09/01 00:45:28;;;;;;;7.10;3.40;;;;;;;12.27;100.00;100360.53;694839;28;1217;-63
2023/09/01 00:45:49;;;;;;;5.65;2.97;;;;;;;12.25;100.00;100359.69;699367;28;4301;-63
2023/09/01 00:46:10;;;;;;;7.18;3.20;;;;;;;12.25;100.00;100360.56;701841;28;858;-63
2023/09/01 00:46:32;;;;;;;8.50;3.40;;;;;;;12.24;100.00;100364.06;700830;28;967;-62
2023/09/01 00:46:52;;;;;;;8.23;3.50;;;;;;;12.25;100.00;100365.81;699664;28;1441;-62
2023/09/01 00:47:13;;;;;;;6.93;3.22;;;;;;;12.24;100.00;100369.31;699397;28;1175;-63
2023/09/01 00:47:34;;;;;;;6.40;3.50;;;;;;;12.24;100.00;100364.06;696892;28;1818;-63
2023/09/01 00:47:54;;;;;;;7.07;3.63;;;;;;;12.24;100.00;100358.81;691396;28;1965;-63
2023/09/01 00:48:15;;;;;;;6.90;3.40;;;;;;;12.24;100.00;100361.44;695697;28;825;-63
2023/09/01 00:48:37;;;;;;;5.55;3.22;;;;;;;12.23;100.00;100359.69;695166;28;1259;-62
2023/09/01 00:48:58;;;;;;;5.85;3.42;;;;;;;12.27;100.00;100357.91;694368;28;4553;-63
2023/09/01 00:49:18;;;;;;;7.25;3.60;;;;;;;12.26;100.00;100357.03;695683;28;1343;-63
2023/09/01 00:49:40;;;;;;;6.90;3.63;;;;;;;12.27;100.00;100364.00;695625;28;1244;-65
2023/09/01 00:50:07;;;;;;;5.40;3.17;;;;;;;12.27;100.00;100358.75;697836;28;1302;-61
2023/09/01 00:50:28;;;;;;;6.60;3.20;;;;;;;12.29;100.00;100366.59;698318;28;1436;-63
2023/09/01 00:50:50;;;;;;;6.68;3.30;;;;;;;12.30;100.00;100359.63;699654;28;2223;-62
2023/09/01 00:51:10;;;;;;;5.25;3.22;;;;;;;12.30;100.00;100362.25;699765;28;1425;-63
2023/09/01 00:51:32;;;;;;;6.17;3.20;;;;;;;12.38;100.00;100365.59;699903;28;801;-62
2023/09/01 00:51:52;;;;;;;7.00;3.40;;;;;;;12.39;100.00;100365.56;697886;28;4528;-62
2023/09/01 00:52:13;;;;;;;5.45;3.00;;;;;;;12.48;100.00;100361.91;697613;28;1200;-63
2023/09/01 00:52:35;;;;;;;5.15;3.10;;;;;;;12.50;100.00;100368.00;695459;28;1353;-63
2023/09/01 00:52:56;;;;;;;5.57;3.17;;;;;;;12.49;100.00;100363.66;694814;28;1698;-63
2023/09/01 00:53:18;;;;;;;6.63;3.22;;;;;;;12.46;100.00;100358.47;693039;28;1336;-63
2023/09/01 00:53:38;;;;;;;6.38;3.30;;;;;;;12.46;100.00;100371.56;692507;28;1219;-63
2023/09/01 00:53:59;;;;;;;6.75;3.17;;;;;;;12.43;100.00;100369.88;687957;28;1445;-63
2023/09/01 00:54:20;;;;;;;8.00;3.37;;;;;;;12.42;100.00;100370.75;689369;28;923;-63
2023/09/01 00:54:41;;;;;;;7.55;3.58;;;;;;;12.42;100.00;100372.53;691163;28;4429;-63
2023/09/01 00:55:01;;;;;;;5.63;3.00;;;;;;;12.40;100.00;100366.41;696494;28;1548;-63
2023/09/01 00:55:22;;;;;;;6.43;3.20;;;;;;;12.40;100.00;100364.66;700433;28;1300;-63
2023/09/01 00:55:43;;;;;;;7.75;3.53;;;;;;;12.39;100.00;100375.16;702538;28;1979;-63
2023/09/01 00:56:04;;;;;;;6.43;3.30;;;;;;;12.37;100.00;100364.72;701587;28;1370;-63
2023/09/01 00:56:25;;;;;;;5.85;3.22;;;;;;;12.36;100.00;100367.38;701176;28;1352;-63
2023/09/01 00:56:48;;;;;;;6.70;3.40;;;;;;;12.38;100.00;100370.84;696443;28;1049;-63
2023/09/01 00:57:09;;;;;;;6.05;3.10;;;;;;;12.40;100.00;100377.75;692472;28;1701;-62
2023/09/01 00:57:29;;;;;;;7.87;4.20;;;;;;;12.39;100.00;100368.19;693008;28;968;-63
2023/09/01 00:57:49;;;;;;;5.63;3.63;;;;;;;12.41;100.00;100369.00;688051;28;4408;-63
2023/09/01 00:58:11;;;;;;;5.77;3.43;;;;;;;12.42;100.00;100375.16;694606;28;920;-62
2023/09/01 00:58:31;;;;;;;7.15;3.30;;;;;;;12.41;100.00;100361.16;698562;28;1727;-64
2023/09/01 00:58:52;;;;;;;6.82;3.10;;;;;;;12.50;100.00;100362.75;698991;28;2330;-62
2023/09/01 00:59:14;;;;;;;5.93;3.13;;;;;;;12.51;100.00;100367.09;699270;28;1349;-62
2023/09/01 00:59:36;;;;;;;5.55;3.03;;;;;;;12.56;100.00;100361.78;697560;28;1306;-62
2023/09/01 00:59:56;;;;;;;4.85;3.03;;;;;;;12.60;100.00;100351.22;696061;28;1158;-62
2023/09/01 01:00:18;;;;;;;5.90;3.37;;;;;;;12.66;100.00;100358.09;691383;28;1243;-62
2023/09/01 01:00:39;;;;;;;5.40;3.17;;;;;;;12.62;100.00;100353.81;691622;28;999;-67
2023/09/01 01:00:59;;;;;;;5.55;3.10;;;;;;;12.60;100.00;100351.22;690731;28;4417;-63
2023/09/01 01:01:20;;;;;;;5.43;3.10;;;;;;;12.58;100.00;100350.34;696310;28;872;-63
2023/09/01 01:01:42;;;;;;;6.43;3.10;;;;;;;12.56;100.00;100349.53;700373;28;1873;-63
2023/09/01 01:02:04;;;;;;;7.55;3.30;;;;;;;12.55;100.00;100352.19;703447;28;1025;-62
2023/09/01 01:02:26;;;;;;;6.82;3.33;;;;;;;12.52;100.00;100350.47;701561;28;968;-63
2023/09/01 01:02:47;;;;;;;6.47;3.40;;;;;;;12.51;100.00;100355.75;699390;28;2520;-63
2023/09/01 01:03:09;;;;;;;5.88;3.30;;;;;;;12.50;100.00;100349.66;700786;28;1217;-63
2023/09/01 01:03:30;;;;;;;6.47;3.30;;;;;;;12.51;100.00;100351.38;699803;28;895;-62
2023/09/01 01:03:52;;;;;;;7.20;3.40;;;;;;;12.50;100.00;100349.66;694565;28;4370;-63
2023/09/01 01:04:14;;;;;;;7.70;3.15;;;;;;;12.49;100.00;100347.91;699553;28;903;-63
2023/09/01 01:04:34;;;;;;;6.45;3.40;;;;;;;12.57;100.00;100347.75;700982;28;1404;-62
2023/09/01 01:04:55;;;;;;;7.10;3.35;;;;;;;12.63;100.00;100349.41;698253;28;1912;-63
2023/09/01 01:05:23;;;;;;;7.73;3.20;;;;;;;12.64;100.00;100351.16;701268;28;959;-62
2023/09/01 01:06:11;;;;;;;5.15;3.10;;;;;;;12.63;100.00;100354.66;700292;28;2054;-62
2023/09/01 01:06:40;;;;;;;5.50;2.92;;;;;;;12.60;100.00;100356.44;701076;28;1390;-63
2023/09/01 01:07:12;;;;;;;5.93;3.42;;;;;;;12.58;100.00;100355.59;697695;28;4764;-63
2023/09/01 01:08:05;;;;;;;7.03;3.20;;;;;;;12.57;100.00;100359.13;698043;28;911;-62
2023/09/01 01:08:47;;;;;;;7.43;3.30;;;;;;;12.57;100.00;100358.25;698501;28;1238;-62
2023/09/01 01:09:14;;;;;;;6.72;3.15;;;;;;;12.57;100.00;100360.88;698002;28;880;-62
2023/09/01 01:09:53;;;;;;;6.18;3.08;;;;;;;12.62;100.00;100352.94;698109;28;1337;-62
2023/09/01 01:10:33;;;;;;;6.70;3.60;;;;;;;12.68;100.00;100361.56;700625;28;5143;-62
2023/09/01 01:11:09;;;;;;;7.25;3.28;;;;;;;12.78;100.00;100354.41;699188;28;1728;-62
2023/09/01 01:11:54;;;;;;;6.70;3.28;;;;;;;12.76;100.00;100353.53;699943;28;856;-62
2023/09/01 01:12:20;;;;;;;6.80;3.10;;;;;;;12.73;100.00;100357.09;690638;28;1440;-63
2023/09/01 01:12:52;;;;;;;5.65;3.10;;;;;;;12.78;100.00;100359.63;700359;28;4433;-62
2023/09/01 01:13:18;;;;;;;5.88;3.28;;;;;;;12.76;100.00;100354.41;700334;28;840;-63
2023/09/01 01:13:47;;;;;;;5.90;3.63;;;;;;;12.78;100.00;100359.63;701856;28;943;-63
2023/09/01 01:14:14;;;;;;;7.30;3.55;;;;;;;12.78;100.00;100360.50;702282;28;1109;-62
2023/09/01 01:14:47;;;;;;;6.03;3.13;;;;;;;12.74;100.00;100352.72;701733;28;1427;-62
2023/09/01 01:15:10;;;;;;;6.82;3.08;;;;;;;12.72;100.00;100355.38;704529;28;911;-62
2023/09/01 01:15:32;;;;;;;6.50;3.40;;;;;;;12.71;100.00;100355.38;703168;28;1075;-62
2023/09/01 01:15:57;;;;;;;6.22;3.10;;;;;;;12.68;100.00;100353.69;702793;28;4517;-62
2023/09/01 01:16:18;;;;;;;5.97;3.15;;;;;;;12.70;100.00;100356.28;705392;27;788;-62
2023/09/01 01:16:39;;;;;;;6.50;3.10;;;;;;;12.67;100.00;100362.47;707095;27;864;-62
2023/09/01 01:17:00;;;;;;;6.25;3.15;;;;;;;12.67;100.00;100353.69;703182;27;1649;-62
2023/09/01 01:17:22;;;;;;;6.07;3.20;;;;;;;12.64;100.00;100354.66;702412;28;1088;-62
2023/09/01 01:17:45;;;;;;;6.72;3.38;;;;;;;12.64;100.00;100356.38;700068;28;2371;-63
2023/09/01 01:18:11;;;;;;;6.22;3.40;;;;;;;12.61;100.00;100352.06;701641;28;956;-63
2023/09/01 01:18:36;;;;;;;5.97;3.17;;;;;;;12.60;100.00;100351.22;698989;28;2149;-63
2023/09/01 01:19:04;;;;;;;6.43;3.35;;;;;;;12.63;100.00;100354.66;696531;28;4392;-63
2023/09/01 01:19:53;;;;;;;5.70;3.50;;;;;;;12.62;100.00;100351.19;698895;28;1225;-62
2023/09/01 01:20:29;;;;;;;6.78;3.15;;;;;;;12.60;100.00;100350.34;702283;28;891;-63
2023/09/01 01:20:54;;;;;;;8.68;3.35;;;;;;;12.60;100.00;100351.22;698905;28;1762;-63
2023/09/01 01:21:24;;;;;;;9.15;3.25;;;;;;;12.62;100.00;100358.19;702088;28;1001;-63
2023/09/01 01:21:47;;;;;;;7.43;3.60;;;;;;;12.68;100.00;100347.56;696834;28;4403;-63
2023/09/01 01:22:07;;;;;;;6.25;3.25;;;;;;;12.67;100.00;100351.97;695439;28;1271;-62
2023/09/01 01:22:48;;;;;;;6.70;3.55;;;;;;;12.65;100.00;100348.50;694751;28;1241;-63
2023/09/01 01:23:19;;;;;;;7.25;3.10;;;;;;;12.63;100.00;100352.03;697607;28;1023;-63
2023/09/01 01:23:42;;;;;;;7.25;3.30;;;;;;;12.64;100.00;100345.91;695264;28;947;-62
2023/09/01 01:24:03;;;;;;;7.80;3.25;;;;;;;12.63;100.00;100344.16;694973;28;1330;-63
2023/09/01 01:24:24;;;;;;;6.25;3.33;;;;;;;12.63;100.00;100349.41;693988;28;1972;-63
2023/09/01 01:24:45;;;;;;;5.45;3.10;;;;;;;12.64;100.00;100348.53;689181;28;4491;-63
2023/09/01 01:25:09;;;;;;;5.37;3.20;;;;;;;12.69;100.00;100344.91;688270;28;869;-62
2023/09/01 01:25:30;;;;;;;7.28;3.22;;;;;;;12.71;100.00;100344.88;690657;28;909;-62
2023/09/01 01:25:52;;;;;;;7.17;3.40;;;;;;;12.70;100.00;100346.66;693755;28;1734;-63
2023/09/01 01:26:15;;;;;;;5.82;3.40;;;;;;;12.69;100.00;100341.44;696549;28;980;-62
2023/09/01 01:26:36;;;;;;;6.15;3.20;;;;;;;12.67;100.00;100345.84;697756;28;1685;-63
2023/09/01 01:26:56;;;;;;;7.88;3.17;;;;;;;12.65;100.00;100343.25;697981;28;1237;-62
2023/09/01 01:27:18;;;;;;;6.30;3.00;;;;;;;12.64;100.00;100344.16;699374;28;1210;-63
2023/09/01 01:27:42;;;;;;;6.70;3.15;;;;;;;12.64;100.00;100340.66;698460;28;1473;-63
2023/09/01 01:28:07;;;;;;;6.53;3.42;;;;;;;12.63;100.00;100341.53;693568;28;5183;-63
2023/09/01 01:28:28;;;;;;;6.63;3.28;;;;;;;12.62;100.00;100337.22;697237;28;919;-62
2023/09/01 01:28:48;;;;;;;5.90;3.30;;;;;;;12.62;100.00;100339.84;699400;28;1993;-62
2023/09/01 01:29:09;;;;;;;6.43;3.35;;;;;;;12.62;100.00;100337.22;701468;28;1186;-62
2023/09/01 01:29:29;;;;;;;8.67;3.53;;;;;;;12.60;100.00;100343.34;700747;28;828;-63
2023/09/01 01:29:50;;;;;;;6.13;3.22;;;;;;;12.60;100.00;100340.72;699168;28;1839;-62
2023/09/01 01:30:13;;;;;;;6.50;3.57;;;;;;;12.60;100.00;100342.50;700999;28;1937;-63
2023/09/01 01:30:38;;;;;;;7.63;3.60;;;;;;;12.59;100.00;100343.38;698662;28;1262;-62
2023/09/01 01:30:58;;;;;;;6.93;3.30;;;;;;;12.60;100.00;100342.50;697414;28;4483;-63
2023/09/01 01:31:19;;;;;;;6.60;3.40;;;;;;;12.59;100.00;100338.97;696815;28;1226;-63
2023/09/01 01:31:39;;;;;;;6.23;3.37;;;;;;;12.60;100.00;100338.09;696493;28;892;-63
2023/09/01 01:32:00;;;;;;;5.03;3.20;;;;;;;12.59;100.00;100338.97;694812;28;1739;-62
2023/09/01 01:32:20;;;;;;;5.83;3.57;;;;;;;12.59;100.00;100343.38;694286;28;1574;-63
2023/09/01 01:32:44;;;;;;;6.97;3.30;;;;;;;12.58;100.00;100341.63;696925;28;789;-63
2023/09/01 01:33:17;;;;;;;9.65;3.35;;;;;;;12.64;100.00;100341.53;698766;28;1014;-63
2023/09/01 01:33:59;;;;;;;6.55;3.42;;;;;;;12.70;100.00;100344.03;699789;28;1336;-62
2023/09/01 01:35:04;;;;;;;6.70;3.40;;;;;;;12.74;100.00;100340.47;700940;28;4751;-62
2023/09/01 01:35:42;;;;;;;6.60;3.10;;;;;;;12.73;100.00;100340.50;688763;28;2193;-63
2023/09/01 01:36:24;;;;;;;5.45;3.47;;;;;;;12.71;100.00;100340.53;685163;28;1192;-63
2023/09/01 01:36:53;;;;;;;6.13;3.20;;;;;;;12.74;100.00;100347.47;693124;28;4387;-63
2023/09/01 01:37:25;;;;;;;6.25;3.38;;;;;;;12.73;100.00;100343.13;697548;28;841;-62
2023/09/01 01:37:47;;;;;;;5.93;3.20;;;;;;;12.71;100.00;100342.25;697350;28;1817;-62
2023/09/01 01:38:20;;;;;;;5.40;3.17;;;;;;;12.68;100.00;100347.56;696302;28;1195;-62
2023/09/01 01:38:44;;;;;;;5.78;3.00;;;;;;;12.67;100.00;100345.84;694547;28;5374;-63
2023/09/01 01:39:12;;;;;;;5.60;3.33;;;;;;;12.65;100.00;100345.00;696620;28;963;-63
2023/09/01 01:39:33;;;;;;;7.30;3.00;;;;;;;12.63;100.00;100338.91;696210;28;1071;-63
2023/09/01 01:39:55;;;;;;;6.50;3.20;;;;;;;12.62;100.00;100345.06;692934;28;4392;-62
2023/09/01 01:40:20;;;;;;;5.70;3.25;;;;;;;12.63;100.00;100341.53;696670;28;861;-62
2023/09/01 01:40:43;;;;;;;7.55;3.47;;;;;;;12.72;100.00;100344.88;698532;28;931;-62
2023/09/01 01:41:11;;;;;;;7.97;3.30;;;;;;;12.73;100.00;100338.72;698230;28;801;-61
2023/09/01 01:41:48;;;;;;;6.32;3.30;;;;;;;12.75;100.00;100343.94;696613;28;1234;-63
2023/09/01 01:42:17;;;;;;;9.27;3.92;;;;;;;12.72;100.00;100338.75;700851;28;1039;-63
2023/09/01 01:42:40;;;;;;;6.82;3.17;;;;;;;12.72;100.00;100339.63;701515;28;936;-62
2023/09/01 01:43:03;;;;;;;6.57;3.40;;;;;;;12.71;100.00;100342.25;699971;28;4655;-62
2023/09/01 01:43:27;;;;;;;7.25;3.28;;;;;;;12.72;100.00;100344.88;701411;28;1424;-62
2023/09/01 01:43:50;;;;;;;5.80;3.20;;;;;;;12.73;100.00;100340.50;697285;28;1726;-62
2023/09/01 01:44:15;;;;;;;6.65;3.30;;;;;;;12.72;100.00;100339.63;698837;28;912;-62
2023/09/01 01:44:39;;;;;;;6.00;3.30;;;;;;;12.72;100.00;100342.25;698761;28;861;-62
2023/09/01 01:45:01;;;;;;;5.45;3.40;;;;;;;12.72;100.00;100338.75;697254;28;1900;-62
2023/09/01 01:45:24;;;;;;;6.68;3.42;;;;;;;12.72;100.00;100336.13;699318;28;1147;-64
2023/09/01 01:45:45;;;;;;;6.80;3.20;;;;;;;12.79;100.00;100340.38;696594;28;4545;-63
2023/09/01 01:46:06;;;;;;;7.10;3.40;;;;;;;12.78;100.00;100341.28;696178;28;880;-62
2023/09/01 01:46:27;;;;;;;6.07;3.35;;;;;;;12.78;100.00;100344.75;696576;28;1295;-62
2023/09/01 01:46:50;;;;;;;7.30;3.55;;;;;;;12.82;100.00;100342.94;694829;28;878;-62
2023/09/01 01:47:11;;;;;;;7.57;3.17;;;;;;;12.82;100.00;100339.44;694095;28;1366;-62
2023/09/01 01:47:32;;;;;;;6.10;3.10;;;;;;;12.81;100.00;100338.59;696378;28;1329;-62
2023/09/01 01:47:53;;;;;;;6.22;3.28;;;;;;;12.87;100.00;100343.69;693518;28;1770;-62
2023/09/01 01:48:14;;;;;;;6.30;3.30;;;;;;;12.86;100.00;100338.50;695626;28;1624;-62
2023/09/01 01:48:37;;;;;;;5.82;3.10;;;;;;;12.92;100.00;100336.63;693818;28;1428;-62
2023/09/01 01:48:57;;;;;;;6.18;3.33;;;;;;;12.98;100.00;100340.03;691176;28;4488;-63
2023/09/01 01:49:19;;;;;;;6.18;3.15;;;;;;;12.97;100.00;100343.53;696457;28;908;-62
2023/09/01 01:49:40;;;;;;;5.45;2.85;;;;;;;13.04;100.00;100339.88;700510;28;761;-62
2023/09/01 01:50:00;;;;;;;6.13;2.90;;;;;;;13.04;100.00;100335.53;699955;28;1466;-62
2023/09/01 01:50:21;;;;;;;7.20;3.20;;;;;;;13.02;100.00;100336.44;695658;28;1917;-62
2023/09/01 01:50:41;;;;;;;7.17;2.97;;;;;;;12.99;100.00;100341.72;696442;28;1271;-62